sensor_id;sensor_type;location;lat;lon;timestamp;P1;durP1;ratioP1;P2;durP2;ratioP2
72085;SDS011;64750;52.134;5.424;2023-03-23T00:01:23;3.28;;;2.95;;
72085;SDS011;64750;52.134;5.424;2023-03-23T00:03:51;5.15;;;3.10;;
72085;SDS011;64750;52.134;5.424;2023-03-23T00:06:19;4.10;;;3.13;;
72085;SDS011;64750;52.134;5.424;2023-03-23T00:08:45;3.40;;;2.70;;
72085;SDS011;64750;52.134;5.424;2023-03-23T00:11:17;5.25;;;3.03;;
72085;SDS011;64750;52.134;5.424;2023-03-23T00:13:47;3.67;;;2.88;;
72085;SDS011;64750;52.134;5.424;2023-03-23T00:16:16;4.50;;;2.78;;
72085;SDS011;64750;52.134;5.424;2023-03-23T00:18:48;6.77;;;2.80;;
72085;SDS011;64750;52.134;5.424;2023-03-23T00:21:27;4.20;;;2.88;;
72085;SDS011;64750;52.134;5.424;2023-03-23T00:24:03;5.40;;;2.85;;
72085;SDS011;64750;52.134;5.424;2023-03-23T00:26:29;3.70;;;2.55;;
72085;SDS011;64750;52.134;5.424;2023-03-23T00:28:58;5.43;;;3.03;;
72085;SDS011;64750;52.134;5.424;2023-03-23T00:31:25;2.70;;;2.47;;
72085;SDS011;64750;52.134;5.424;2023-03-23T00:33:56;7.72;;;2.92;;
72085;SDS011;64750;52.134;5.424;2023-03-23T00:36:23;2.47;;;2.28;;
72085;SDS011;64750;52.134;5.424;2023-03-23T00:38:48;2.87;;;2.60;;
72085;SDS011;64750;52.134;5.424;2023-03-23T00:41:14;5.50;;;2.73;;
72085;SDS011;64750;52.134;5.424;2023-03-23T00:43:40;4.03;;;2.43;;
72085;SDS011;64750;52.134;5.424;2023-03-23T00:46:05;2.92;;;2.20;;
72085;SDS011;64750;52.134;5.424;2023-03-23T00:48:35;6.97;;;2.85;;
72085;SDS011;64750;52.134;5.424;2023-03-23T00:51:02;2.28;;;2.05;;
72085;SDS011;64750;52.134;5.424;2023-03-23T00:53:31;3.97;;;2.23;;
72085;SDS011;64750;52.134;5.424;2023-03-23T00:55:57;2.90;;;2.15;;
72085;SDS011;64750;52.134;5.424;2023-03-23T00:58:23;3.10;;;2.77;;
72085;SDS011;64750;52.134;5.424;2023-03-23T01:00:48;2.50;;;2.20;;
72085;SDS011;64750;52.134;5.424;2023-03-23T01:03:13;3.37;;;2.27;;
72085;SDS011;64750;52.134;5.424;2023-03-23T01:05:43;5.15;;;2.17;;
72085;SDS011;64750;52.134;5.424;2023-03-23T01:08:12;5.13;;;1.83;;
72085;SDS011;64750;52.134;5.424;2023-03-23T01:10:39;3.22;;;2.20;;
72085;SDS011;64750;52.134;5.424;2023-03-23T01:13:05;4.20;;;2.10;;
72085;SDS011;64750;52.134;5.424;2023-03-23T01:15:31;3.88;;;2.15;;
72085;SDS011;64750;52.134;5.424;2023-03-23T01:17:57;3.70;;;2.00;;
72085;SDS011;64750;52.134;5.424;2023-03-23T01:20:23;3.05;;;2.45;;
72085;SDS011;64750;52.134;5.424;2023-03-23T01:22:49;2.85;;;1.98;;
72085;SDS011;64750;52.134;5.424;2023-03-23T01:25:15;1.93;;;1.83;;
72085;SDS011;64750;52.134;5.424;2023-03-23T01:27:41;2.90;;;2.37;;
72085;SDS011;64750;52.134;5.424;2023-03-23T01:30:07;2.10;;;1.90;;
72085;SDS011;64750;52.134;5.424;2023-03-23T01:32:35;3.75;;;2.30;;
72085;SDS011;64750;52.134;5.424;2023-03-23T01:35:01;1.90;;;1.80;;
72085;SDS011;64750;52.134;5.424;2023-03-23T01:37:26;3.30;;;1.95;;
72085;SDS011;64750;52.134;5.424;2023-03-23T01:39:53;2.30;;;2.10;;
72085;SDS011;64750;52.134;5.424;2023-03-23T01:42:23;3.58;;;2.80;;
72085;SDS011;64750;52.134;5.424;2023-03-23T01:47:16;3.23;;;2.63;;
72085;SDS011;64750;52.134;5.424;2023-03-23T01:49:46;3.72;;;2.00;;
72085;SDS011;64750;52.134;5.424;2023-03-23T01:52:17;2.95;;;2.08;;
72085;SDS011;64750;52.134;5.424;2023-03-23T01:54:49;4.23;;;1.63;;
72085;SDS011;64750;52.134;5.424;2023-03-23T01:57:18;2.42;;;1.70;;
72085;SDS011;64750;52.134;5.424;2023-03-23T01:59:47;2.00;;;1.80;;
72085;SDS011;64750;52.134;5.424;2023-03-23T02:02:16;3.65;;;1.92;;
72085;SDS011;64750;52.134;5.424;2023-03-23T02:04:42;2.17;;;1.92;;
72085;SDS011;64750;52.134;5.424;2023-03-23T02:07:09;3.80;;;2.03;;
72085;SDS011;64750;52.134;5.424;2023-03-23T02:09:37;3.47;;;1.80;;
72085;SDS011;64750;52.134;5.424;2023-03-23T02:12:03;2.13;;;1.93;;
72085;SDS011;64750;52.134;5.424;2023-03-23T02:14:28;2.23;;;2.03;;
72085;SDS011;64750;52.134;5.424;2023-03-23T02:17:04;5.43;;;1.88;;
72085;SDS011;64750;52.134;5.424;2023-03-23T02:25:18;2.03;;;1.83;;
72085;SDS011;64750;52.134;5.424;2023-03-23T02:28:08;2.50;;;2.25;;
72085;SDS011;64750;52.134;5.424;2023-03-23T02:33:43;2.70;;;2.15;;
72085;SDS011;64750;52.134;5.424;2023-03-23T02:36:14;2.37;;;2.17;;
72085;SDS011;64750;52.134;5.424;2023-03-23T02:39:14;2.63;;;2.10;;
72085;SDS011;64750;52.134;5.424;2023-03-23T02:41:51;2.10;;;1.90;;
72085;SDS011;64750;52.134;5.424;2023-03-23T02:44:20;2.13;;;2.00;;
72085;SDS011;64750;52.134;5.424;2023-03-23T02:46:49;4.22;;;2.03;;
72085;SDS011;64750;52.134;5.424;2023-03-23T02:49:16;3.07;;;2.30;;
72085;SDS011;64750;52.134;5.424;2023-03-23T02:51:43;3.47;;;2.25;;
72085;SDS011;64750;52.134;5.424;2023-03-23T02:54:11;2.35;;;2.15;;
72085;SDS011;64750;52.134;5.424;2023-03-23T02:56:38;2.88;;;2.67;;
72085;SDS011;64750;52.134;5.424;2023-03-23T02:59:05;6.55;;;2.15;;
72085;SDS011;64750;52.134;5.424;2023-03-23T03:04:01;4.97;;;2.47;;
72085;SDS011;64750;52.134;5.424;2023-03-23T03:12:25;2.22;;;2.03;;
72085;SDS011;64750;52.134;5.424;2023-03-23T03:17:49;2.88;;;2.35;;
72085;SDS011;64750;52.134;5.424;2023-03-23T03:20:20;3.42;;;1.98;;
72085;SDS011;64750;52.134;5.424;2023-03-23T03:22:50;3.40;;;1.80;;
72085;SDS011;64750;52.134;5.424;2023-03-23T03:25:17;3.95;;;1.95;;
72085;SDS011;64750;52.134;5.424;2023-03-23T03:27:45;3.30;;;1.70;;
72085;SDS011;64750;52.134;5.424;2023-03-23T03:30:15;5.78;;;1.95;;
72085;SDS011;64750;52.134;5.424;2023-03-23T03:32:46;3.63;;;2.45;;
72085;SDS011;64750;52.134;5.424;2023-03-23T03:35:16;4.17;;;2.00;;
72085;SDS011;64750;52.134;5.424;2023-03-23T03:37:43;6.07;;;1.80;;
72085;SDS011;64750;52.134;5.424;2023-03-23T03:40:15;3.40;;;1.60;;
72085;SDS011;64750;52.134;5.424;2023-03-23T03:42:43;2.63;;;1.80;;
72085;SDS011;64750;52.134;5.424;2023-03-23T03:45:12;3.13;;;1.50;;
72085;SDS011;64750;52.134;5.424;2023-03-23T03:47:40;3.83;;;1.70;;
72085;SDS011;64750;52.134;5.424;2023-03-23T03:50:06;3.50;;;1.65;;
72085;SDS011;64750;52.134;5.424;2023-03-23T03:52:32;2.00;;;1.30;;
72085;SDS011;64750;52.134;5.424;2023-03-23T03:54:57;1.60;;;1.20;;
72085;SDS011;64750;52.134;5.424;2023-03-23T03:57:23;4.23;;;1.50;;
72085;SDS011;64750;52.134;5.424;2023-03-23T03:59:49;3.88;;;1.27;;
72085;SDS011;64750;52.134;5.424;2023-03-23T04:02:14;3.80;;;1.30;;
72085;SDS011;64750;52.134;5.424;2023-03-23T04:04:44;3.58;;;1.60;;
72085;SDS011;64750;52.134;5.424;2023-03-23T04:07:10;5.97;;;1.45;;
72085;SDS011;64750;52.134;5.424;2023-03-23T04:09:38;4.53;;;1.48;;
72085;SDS011;64750;52.134;5.424;2023-03-23T04:12:05;1.43;;;1.30;;
72085;SDS011;64750;52.134;5.424;2023-03-23T04:14:30;2.70;;;1.30;;
72085;SDS011;64750;52.134;5.424;2023-03-23T04:16:56;2.67;;;1.20;;
72085;SDS011;64750;52.134;5.424;2023-03-23T04:19:25;1.90;;;1.40;;
72085;SDS011;64750;52.134;5.424;2023-03-23T04:21:53;2.90;;;1.15;;
72085;SDS011;64750;52.134;5.424;2023-03-23T04:24:20;2.20;;;1.13;;
72085;SDS011;64750;52.134;5.424;2023-03-23T04:26:46;2.95;;;1.58;;
72085;SDS011;64750;52.134;5.424;2023-03-23T04:29:12;6.95;;;1.60;;
72085;SDS011;64750;52.134;5.424;2023-03-23T04:31:38;3.47;;;1.17;;
72085;SDS011;64750;52.134;5.424;2023-03-23T04:34:04;4.82;;;1.40;;
72085;SDS011;64750;52.134;5.424;2023-03-23T04:36:30;3.67;;;1.37;;
72085;SDS011;64750;52.134;5.424;2023-03-23T04:38:58;6.43;;;1.97;;
72085;SDS011;64750;52.134;5.424;2023-03-23T04:41:25;3.78;;;1.05;;
72085;SDS011;64750;52.134;5.424;2023-03-23T04:43:51;3.08;;;1.20;;
72085;SDS011;64750;52.134;5.424;2023-03-23T04:46:18;5.57;;;0.95;;
72085;SDS011;64750;52.134;5.424;2023-03-23T04:48:46;2.78;;;1.10;;
72085;SDS011;64750;52.134;5.424;2023-03-23T04:51:12;2.80;;;1.07;;
72085;SDS011;64750;52.134;5.424;2023-03-23T04:53:38;5.57;;;1.20;;
72085;SDS011;64750;52.134;5.424;2023-03-23T04:56:03;4.97;;;1.00;;
72085;SDS011;64750;52.134;5.424;2023-03-23T04:58:29;4.30;;;1.00;;
72085;SDS011;64750;52.134;5.424;2023-03-23T05:00:58;5.50;;;1.13;;
72085;SDS011;64750;52.134;5.424;2023-03-23T05:03:25;7.78;;;1.30;;
72085;SDS011;64750;52.134;5.424;2023-03-23T05:05:50;6.50;;;0.87;;
72085;SDS011;64750;52.134;5.424;2023-03-23T05:08:20;6.43;;;0.98;;
72085;SDS011;64750;52.134;5.424;2023-03-23T05:10:57;5.35;;;1.08;;
72085;SDS011;64750;52.134;5.424;2023-03-23T05:13:24;5.13;;;1.17;;
72085;SDS011;64750;52.134;5.424;2023-03-23T05:15:50;3.47;;;1.20;;
72085;SDS011;64750;52.134;5.424;2023-03-23T05:18:16;4.70;;;1.10;;
72085;SDS011;64750;52.134;5.424;2023-03-23T05:20:42;2.83;;;0.93;;
72085;SDS011;64750;52.134;5.424;2023-03-23T05:23:08;4.28;;;0.88;;
72085;SDS011;64750;52.134;5.424;2023-03-23T05:25:35;4.80;;;1.60;;
72085;SDS011;64750;52.134;5.424;2023-03-23T05:28:05;9.35;;;0.88;;
72085;SDS011;64750;52.134;5.424;2023-03-23T05:30:31;4.68;;;1.15;;
72085;SDS011;64750;52.134;5.424;2023-03-23T05:32:56;3.40;;;0.77;;
72085;SDS011;64750;52.134;5.424;2023-03-23T05:35:22;5.60;;;1.23;;
72085;SDS011;64750;52.134;5.424;2023-03-23T05:37:47;5.50;;;1.43;;
72085;SDS011;64750;52.134;5.424;2023-03-23T05:40:13;6.47;;;0.93;;
72085;SDS011;64750;52.134;5.424;2023-03-23T05:42:39;4.13;;;1.10;;
72085;SDS011;64750;52.134;5.424;2023-03-23T05:45:10;3.83;;;0.98;;
72085;SDS011;64750;52.134;5.424;2023-03-23T05:47:37;3.85;;;1.30;;
72085;SDS011;64750;52.134;5.424;2023-03-23T05:50:03;10.02;;;1.23;;
72085;SDS011;64750;52.134;5.424;2023-03-23T05:52:31;4.10;;;1.10;;
72085;SDS011;64750;52.134;5.424;2023-03-23T05:54:58;5.90;;;1.23;;
72085;SDS011;64750;52.134;5.424;2023-03-23T05:57:24;3.20;;;1.05;;
72085;SDS011;64750;52.134;5.424;2023-03-23T05:59:49;6.23;;;1.30;;
72085;SDS011;64750;52.134;5.424;2023-03-23T06:02:15;5.47;;;1.33;;
72085;SDS011;64750;52.134;5.424;2023-03-23T06:04:40;7.37;;;1.40;;
72085;SDS011;64750;52.134;5.424;2023-03-23T06:07:06;5.70;;;1.20;;
72085;SDS011;64750;52.134;5.424;2023-03-23T06:09:32;4.67;;;1.10;;
72085;SDS011;64750;52.134;5.424;2023-03-23T06:11:58;8.27;;;1.65;;
72085;SDS011;64750;52.134;5.424;2023-03-23T06:14:23;5.67;;;1.47;;
72085;SDS011;64750;52.134;5.424;2023-03-23T06:16:48;8.80;;;1.20;;
72085;SDS011;64750;52.134;5.424;2023-03-23T06:19:14;3.17;;;0.97;;
72085;SDS011;64750;52.134;5.424;2023-03-23T06:21:40;5.35;;;1.42;;
72085;SDS011;64750;52.134;5.424;2023-03-23T06:24:06;10.13;;;1.50;;
72085;SDS011;64750;52.134;5.424;2023-03-23T06:26:34;4.07;;;1.25;;
72085;SDS011;64750;52.134;5.424;2023-03-23T06:29:01;3.27;;;1.07;;
72085;SDS011;64750;52.134;5.424;2023-03-23T06:31:27;5.38;;;1.23;;
72085;SDS011;64750;52.134;5.424;2023-03-23T06:33:53;4.67;;;1.20;;
72085;SDS011;64750;52.134;5.424;2023-03-23T06:36:19;6.43;;;1.58;;
72085;SDS011;64750;52.134;5.424;2023-03-23T06:38:44;7.50;;;1.40;;
72085;SDS011;64750;52.134;5.424;2023-03-23T06:41:10;7.37;;;1.60;;
72085;SDS011;64750;52.134;5.424;2023-03-23T06:43:36;5.57;;;1.67;;
72085;SDS011;64750;52.134;5.424;2023-03-23T06:46:04;5.87;;;2.20;;
72085;SDS011;64750;52.134;5.424;2023-03-23T06:48:30;6.53;;;1.40;;
72085;SDS011;64750;52.134;5.424;2023-03-23T06:50:57;7.15;;;1.45;;
72085;SDS011;64750;52.134;5.424;2023-03-23T06:53:22;3.28;;;1.08;;
72085;SDS011;64750;52.134;5.424;2023-03-23T06:55:48;4.10;;;1.30;;
72085;SDS011;64750;52.134;5.424;2023-03-23T06:58:13;3.40;;;1.23;;
72085;SDS011;64750;52.134;5.424;2023-03-23T07:00:39;4.87;;;1.20;;
72085;SDS011;64750;52.134;5.424;2023-03-23T07:03:05;5.90;;;1.35;;
72085;SDS011;64750;52.134;5.424;2023-03-23T07:05:32;10.05;;;1.63;;
72085;SDS011;64750;52.134;5.424;2023-03-23T07:07:58;8.57;;;1.75;;
72085;SDS011;64750;52.134;5.424;2023-03-23T07:10:23;5.80;;;1.87;;
72085;SDS011;64750;52.134;5.424;2023-03-23T07:12:48;6.63;;;1.50;;
72085;SDS011;64750;52.134;5.424;2023-03-23T07:15:14;6.78;;;1.63;;
72085;SDS011;64750;52.134;5.424;2023-03-23T07:17:40;7.97;;;1.43;;
72085;SDS011;64750;52.134;5.424;2023-03-23T07:20:06;3.60;;;1.35;;
72085;SDS011;64750;52.134;5.424;2023-03-23T07:22:33;3.85;;;1.38;;
72085;SDS011;64750;52.134;5.424;2023-03-23T07:24:58;3.80;;;1.48;;
72085;SDS011;64750;52.134;5.424;2023-03-23T07:27:24;4.67;;;1.67;;
72085;SDS011;64750;52.134;5.424;2023-03-23T07:29:50;10.20;;;1.60;;
72085;SDS011;64750;52.134;5.424;2023-03-23T07:32:15;4.67;;;1.60;;
72085;SDS011;64750;52.134;5.424;2023-03-23T07:34:41;4.72;;;1.30;;
72085;SDS011;64750;52.134;5.424;2023-03-23T07:37:07;4.47;;;1.43;;
72085;SDS011;64750;52.134;5.424;2023-03-23T07:39:33;6.27;;;1.40;;
72085;SDS011;64750;52.134;5.424;2023-03-23T07:41:59;4.93;;;0.98;;
72085;SDS011;64750;52.134;5.424;2023-03-23T07:44:25;3.97;;;1.30;;
72085;SDS011;64750;52.134;5.424;2023-03-23T07:46:50;5.77;;;1.13;;
72085;SDS011;64750;52.134;5.424;2023-03-23T07:49:16;3.67;;;1.00;;
72085;SDS011;64750;52.134;5.424;2023-03-23T07:51:42;5.18;;;1.00;;
72085;SDS011;64750;52.134;5.424;2023-03-23T07:54:07;6.13;;;1.20;;
72085;SDS011;64750;52.134;5.424;2023-03-23T07:56:33;2.30;;;1.02;;
72085;SDS011;64750;52.134;5.424;2023-03-23T07:59:00;4.63;;;0.93;;
72085;SDS011;64750;52.134;5.424;2023-03-23T08:01:26;7.38;;;1.33;;
72085;SDS011;64750;52.134;5.424;2023-03-23T08:03:51;7.80;;;1.20;;
72085;SDS011;64750;52.134;5.424;2023-03-23T08:06:19;3.67;;;1.75;;
72085;SDS011;64750;52.134;5.424;2023-03-23T08:08:46;7.07;;;1.30;;
72085;SDS011;64750;52.134;5.424;2023-03-23T08:11:12;6.57;;;1.20;;
72085;SDS011;64750;52.134;5.424;2023-03-23T08:13:40;4.03;;;1.37;;
72085;SDS011;64750;52.134;5.424;2023-03-23T08:16:06;4.20;;;1.33;;
72085;SDS011;64750;52.134;5.424;2023-03-23T08:18:34;7.60;;;1.85;;
72085;SDS011;64750;52.134;5.424;2023-03-23T08:21:00;6.30;;;1.10;;
72085;SDS011;64750;52.134;5.424;2023-03-23T08:23:25;8.20;;;1.60;;
72085;SDS011;64750;52.134;5.424;2023-03-23T08:25:50;6.70;;;1.40;;
72085;SDS011;64750;52.134;5.424;2023-03-23T08:28:16;4.57;;;1.37;;
72085;SDS011;64750;52.134;5.424;2023-03-23T08:30:41;2.30;;;1.27;;
72085;SDS011;64750;52.134;5.424;2023-03-23T08:33:07;4.40;;;1.10;;
72085;SDS011;64750;52.134;5.424;2023-03-23T08:35:35;3.83;;;1.50;;
72085;SDS011;64750;52.134;5.424;2023-03-23T08:38:01;4.80;;;1.20;;
72085;SDS011;64750;52.134;5.424;2023-03-23T08:40:26;4.40;;;1.20;;
72085;SDS011;64750;52.134;5.424;2023-03-23T08:42:52;4.50;;;1.25;;
72085;SDS011;64750;52.134;5.424;2023-03-23T08:45:20;4.70;;;1.10;;
72085;SDS011;64750;52.134;5.424;2023-03-23T08:47:47;7.75;;;1.55;;
72085;SDS011;64750;52.134;5.424;2023-03-23T08:50:17;5.38;;;1.55;;
72085;SDS011;64750;52.134;5.424;2023-03-23T08:52:44;6.35;;;1.55;;
72085;SDS011;64750;52.134;5.424;2023-03-23T08:55:11;3.67;;;1.35;;
72085;SDS011;64750;52.134;5.424;2023-03-23T08:57:37;7.77;;;1.40;;
72085;SDS011;64750;52.134;5.424;2023-03-23T09:00:04;7.63;;;1.45;;
72085;SDS011;64750;52.134;5.424;2023-03-23T09:02:39;5.32;;;1.30;;
72085;SDS011;64750;52.134;5.424;2023-03-23T09:05:05;6.10;;;1.70;;
72085;SDS011;64750;52.134;5.424;2023-03-23T09:07:32;2.80;;;1.08;;
72085;SDS011;64750;52.134;5.424;2023-03-23T09:09:57;6.03;;;1.67;;
72085;SDS011;64750;52.134;5.424;2023-03-23T09:12:22;5.73;;;1.50;;
72085;SDS011;64750;52.134;5.424;2023-03-23T09:14:48;7.37;;;1.20;;
72085;SDS011;64750;52.134;5.424;2023-03-23T09:17:14;6.15;;;1.55;;
72085;SDS011;64750;52.134;5.424;2023-03-23T09:19:39;3.10;;;1.27;;
72085;SDS011;64750;52.134;5.424;2023-03-23T09:22:05;3.70;;;1.27;;
72085;SDS011;64750;52.134;5.424;2023-03-23T09:24:30;5.10;;;1.30;;
72085;SDS011;64750;52.134;5.424;2023-03-23T09:26:56;4.88;;;1.40;;
72085;SDS011;64750;52.134;5.424;2023-03-23T09:29:23;5.28;;;1.60;;
72085;SDS011;64750;52.134;5.424;2023-03-23T09:31:49;5.13;;;1.67;;
72085;SDS011;64750;52.134;5.424;2023-03-23T09:34:14;8.80;;;1.83;;
72085;SDS011;64750;52.134;5.424;2023-03-23T09:36:43;9.13;;;1.60;;
72085;SDS011;64750;52.134;5.424;2023-03-23T09:39:09;2.97;;;1.23;;
72085;SDS011;64750;52.134;5.424;2023-03-23T09:47:01;5.20;;;1.52;;
72085;SDS011;64750;52.134;5.424;2023-03-23T09:52:11;6.05;;;1.30;;
72085;SDS011;64750;52.134;5.424;2023-03-23T09:54:40;7.00;;;1.30;;
72085;SDS011;64750;52.134;5.424;2023-03-23T09:57:16;7.35;;;1.33;;
72085;SDS011;64750;52.134;5.424;2023-03-23T10:00:17;4.47;;;1.60;;
72085;SDS011;64750;52.134;5.424;2023-03-23T10:02:49;5.87;;;1.60;;
72085;SDS011;64750;52.134;5.424;2023-03-23T10:08:17;3.70;;;1.08;;
72085;SDS011;64750;52.134;5.424;2023-03-23T10:16:10;8.27;;;1.63;;
72085;SDS011;64750;52.134;5.424;2023-03-23T10:18:49;4.90;;;0.98;;
72085;SDS011;64750;52.134;5.424;2023-03-23T10:21:24;7.10;;;1.20;;
72085;SDS011;64750;52.134;5.424;2023-03-23T10:23:53;4.63;;;0.88;;
72085;SDS011;64750;52.134;5.424;2023-03-23T10:32:02;9.52;;;1.73;;
72085;SDS011;64750;52.134;5.424;2023-03-23T10:34:58;3.58;;;0.95;;
72085;SDS011;64750;52.134;5.424;2023-03-23T10:37:32;9.68;;;1.10;;
72085;SDS011;64750;52.134;5.424;2023-03-23T10:40:03;8.77;;;1.35;;
72085;SDS011;64750;52.134;5.424;2023-03-23T10:42:35;4.07;;;0.93;;
72085;SDS011;64750;52.134;5.424;2023-03-23T10:45:14;8.30;;;1.08;;
72085;SDS011;64750;52.134;5.424;2023-03-23T10:47:42;8.73;;;1.30;;
72085;SDS011;64750;52.134;5.424;2023-03-23T10:50:15;4.35;;;1.50;;
72085;SDS011;64750;52.134;5.424;2023-03-23T10:52:44;8.77;;;1.55;;
72085;SDS011;64750;52.134;5.424;2023-03-23T10:57:36;8.38;;;1.40;;
72085;SDS011;64750;52.134;5.424;2023-03-23T11:02:45;5.13;;;1.30;;
72085;SDS011;64750;52.134;5.424;2023-03-23T11:05:19;8.65;;;1.60;;
72085;SDS011;64750;52.134;5.424;2023-03-23T11:07:51;9.82;;;1.73;;
72085;SDS011;64750;52.134;5.424;2023-03-23T11:10:26;9.30;;;1.70;;
72085;SDS011;64750;52.134;5.424;2023-03-23T11:12:59;5.27;;;1.20;;
72085;SDS011;64750;52.134;5.424;2023-03-23T11:15:27;7.60;;;1.45;;
72085;SDS011;64750;52.134;5.424;2023-03-23T11:18:05;11.25;;;1.52;;
72085;SDS011;64750;52.134;5.424;2023-03-23T11:20:36;8.52;;;1.25;;
72085;SDS011;64750;52.134;5.424;2023-03-23T11:23:08;7.68;;;1.52;;
72085;SDS011;64750;52.134;5.424;2023-03-23T11:28:28;11.50;;;1.60;;
72085;SDS011;64750;52.134;5.424;2023-03-23T11:30:57;6.47;;;1.40;;
72085;SDS011;64750;52.134;5.424;2023-03-23T11:33:28;4.35;;;0.90;;
72085;SDS011;64750;52.134;5.424;2023-03-23T11:35:55;7.65;;;1.50;;
72085;SDS011;64750;52.134;5.424;2023-03-23T11:38:21;4.97;;;1.13;;
72085;SDS011;64750;52.134;5.424;2023-03-23T11:40:49;6.68;;;1.10;;
72085;SDS011;64750;52.134;5.424;2023-03-23T11:43:23;5.10;;;1.27;;
72085;SDS011;64750;52.134;5.424;2023-03-23T11:45:58;7.47;;;1.27;;
72085;SDS011;64750;52.134;5.424;2023-03-23T11:48:33;7.32;;;1.25;;
72085;SDS011;64750;52.134;5.424;2023-03-23T11:51:05;4.70;;;1.70;;
72085;SDS011;64750;52.134;5.424;2023-03-23T11:54:11;4.47;;;1.13;;
72085;SDS011;64750;52.134;5.424;2023-03-23T11:56:42;5.95;;;1.17;;
72085;SDS011;64750;52.134;5.424;2023-03-23T11:59:11;6.00;;;1.73;;
72085;SDS011;64750;52.134;5.424;2023-03-23T12:12:40;9.10;;;1.48;;
72085;SDS011;64750;52.134;5.424;2023-03-23T12:15:30;6.43;;;2.17;;
72085;SDS011;64750;52.134;5.424;2023-03-23T12:26:21;3.75;;;1.08;;
72085;SDS011;64750;52.134;5.424;2023-03-23T12:34:26;5.78;;;1.25;;
72085;SDS011;64750;52.134;5.424;2023-03-23T12:42:15;5.85;;;1.13;;
72085;SDS011;64750;52.134;5.424;2023-03-23T12:44:43;4.60;;;1.30;;
72085;SDS011;64750;52.134;5.424;2023-03-23T12:49:56;6.88;;;1.08;;
72085;SDS011;64750;52.134;5.424;2023-03-23T12:55:15;6.75;;;1.25;;
72085;SDS011;64750;52.134;5.424;2023-03-23T12:57:53;5.00;;;1.13;;
72085;SDS011;64750;52.134;5.424;2023-03-23T13:03:20;7.82;;;1.33;;
72085;SDS011;64750;52.134;5.424;2023-03-23T13:05:54;5.35;;;0.82;;
72085;SDS011;64750;52.134;5.424;2023-03-23T13:08:39;3.67;;;1.23;;
72085;SDS011;64750;52.134;5.424;2023-03-23T13:11:20;2.90;;;1.30;;
72085;SDS011;64750;52.134;5.424;2023-03-23T13:13:53;4.57;;;0.88;;
72085;SDS011;64750;52.134;5.424;2023-03-23T13:19:08;6.47;;;0.90;;
72085;SDS011;64750;52.134;5.424;2023-03-23T13:24:31;9.55;;;2.20;;
72085;SDS011;64750;52.134;5.424;2023-03-23T13:27:02;5.50;;;1.13;;
72085;SDS011;64750;52.134;5.424;2023-03-23T13:29:30;5.47;;;0.87;;
72085;SDS011;64750;52.134;5.424;2023-03-23T13:32:04;4.15;;;1.10;;
72085;SDS011;64750;52.134;5.424;2023-03-23T13:34:32;4.50;;;0.90;;
72085;SDS011;64750;52.134;5.424;2023-03-23T13:37:02;3.92;;;1.05;;
72085;SDS011;64750;52.134;5.424;2023-03-23T13:39:35;3.58;;;1.02;;
72085;SDS011;64750;52.134;5.424;2023-03-23T13:44:42;4.53;;;1.33;;
72085;SDS011;64750;52.134;5.424;2023-03-23T13:50:43;5.53;;;1.40;;
72085;SDS011;64750;52.134;5.424;2023-03-23T13:57:53;4.57;;;1.20;;
72085;SDS011;64750;52.134;5.424;2023-03-23T14:03:02;4.97;;;1.25;;
72085;SDS011;64750;52.134;5.424;2023-03-23T14:05:41;4.53;;;1.02;;
72085;SDS011;64750;52.134;5.424;2023-03-23T14:11:08;7.68;;;1.25;;
72085;SDS011;64750;52.134;5.424;2023-03-23T14:16:38;2.42;;;1.23;;
72085;SDS011;64750;52.134;5.424;2023-03-23T14:19:14;2.97;;;0.98;;
72085;SDS011;64750;52.134;5.424;2023-03-23T14:21:41;2.70;;;1.40;;
72085;SDS011;64750;52.134;5.424;2023-03-23T14:24:19;3.05;;;1.15;;
72085;SDS011;64750;52.134;5.424;2023-03-23T14:26:50;2.63;;;1.23;;
72085;SDS011;64750;52.134;5.424;2023-03-23T14:29:26;3.38;;;1.00;;
72085;SDS011;64750;52.134;5.424;2023-03-23T14:31:56;4.47;;;1.37;;
72085;SDS011;64750;52.134;5.424;2023-03-23T14:34:24;2.47;;;1.00;;
72085;SDS011;64750;52.134;5.424;2023-03-23T14:36:51;4.88;;;1.10;;
72085;SDS011;64750;52.134;5.424;2023-03-23T14:39:25;6.13;;;1.70;;
72085;SDS011;64750;52.134;5.424;2023-03-23T14:41:56;5.93;;;1.83;;
72085;SDS011;64750;52.134;5.424;2023-03-23T14:44:49;4.53;;;1.30;;
72085;SDS011;64750;52.134;5.424;2023-03-23T14:47:16;5.10;;;1.63;;
72085;SDS011;64750;52.134;5.424;2023-03-23T14:49:46;2.55;;;0.95;;
72085;SDS011;64750;52.134;5.424;2023-03-23T14:52:12;4.77;;;1.10;;
72085;SDS011;64750;52.134;5.424;2023-03-23T14:54:43;4.22;;;1.23;;
72085;SDS011;64750;52.134;5.424;2023-03-23T14:57:28;3.30;;;0.90;;
72085;SDS011;64750;52.134;5.424;2023-03-23T14:59:54;5.70;;;1.20;;
72085;SDS011;64750;52.134;5.424;2023-03-23T15:02:25;7.63;;;1.35;;
72085;SDS011;64750;52.134;5.424;2023-03-23T15:04:59;4.68;;;1.65;;
72085;SDS011;64750;52.134;5.424;2023-03-23T15:07:32;7.15;;;1.23;;
72085;SDS011;64750;52.134;5.424;2023-03-23T15:10:00;4.03;;;1.53;;
72085;SDS011;64750;52.134;5.424;2023-03-23T15:12:29;6.22;;;1.10;;
72085;SDS011;64750;52.134;5.424;2023-03-23T15:14:57;5.35;;;1.05;;
72085;SDS011;64750;52.134;5.424;2023-03-23T15:17:26;5.07;;;1.30;;
72085;SDS011;64750;52.134;5.424;2023-03-23T15:19:54;5.55;;;1.60;;
72085;SDS011;64750;52.134;5.424;2023-03-23T15:22:24;4.20;;;1.00;;
72085;SDS011;64750;52.134;5.424;2023-03-23T15:24:53;3.85;;;1.23;;
72085;SDS011;64750;52.134;5.424;2023-03-23T15:27:28;4.32;;;1.23;;
72085;SDS011;64750;52.134;5.424;2023-03-23T15:29:59;6.15;;;1.55;;
72085;SDS011;64750;52.134;5.424;2023-03-23T15:32:40;5.35;;;0.90;;
72085;SDS011;64750;52.134;5.424;2023-03-23T15:35:16;7.20;;;1.50;;
72085;SDS011;64750;52.134;5.424;2023-03-23T15:37:48;3.78;;;1.15;;
72085;SDS011;64750;52.134;5.424;2023-03-23T15:40:17;6.10;;;1.02;;
72085;SDS011;64750;52.134;5.424;2023-03-23T15:42:45;3.75;;;1.08;;
72085;SDS011;64750;52.134;5.424;2023-03-23T15:50:18;5.50;;;1.30;;
72085;SDS011;64750;52.134;5.424;2023-03-23T15:52:52;9.00;;;1.40;;
72085;SDS011;64750;52.134;5.424;2023-03-23T15:55:19;8.52;;;1.92;;
72085;SDS011;64750;52.134;5.424;2023-03-23T15:57:47;6.07;;;1.17;;
72085;SDS011;64750;52.134;5.424;2023-03-23T16:00:19;3.57;;;1.00;;
72085;SDS011;64750;52.134;5.424;2023-03-23T16:02:48;6.03;;;1.50;;
72085;SDS011;64750;52.134;5.424;2023-03-23T16:05:18;5.90;;;1.30;;
72085;SDS011;64750;52.134;5.424;2023-03-23T16:07:44;3.50;;;1.27;;
72085;SDS011;64750;52.134;5.424;2023-03-23T16:10:15;5.55;;;1.13;;
72085;SDS011;64750;52.134;5.424;2023-03-23T16:12:47;5.60;;;1.30;;
72085;SDS011;64750;52.134;5.424;2023-03-23T16:15:14;4.38;;;1.00;;
72085;SDS011;64750;52.134;5.424;2023-03-23T16:17:41;4.15;;;1.20;;
72085;SDS011;64750;52.134;5.424;2023-03-23T16:20:15;6.32;;;1.60;;
72085;SDS011;64750;52.134;5.424;2023-03-23T16:22:44;3.10;;;1.27;;
72085;SDS011;64750;52.134;5.424;2023-03-23T16:25:12;4.10;;;1.00;;
72085;SDS011;64750;52.134;5.424;2023-03-23T16:27:40;3.83;;;1.20;;
72085;SDS011;64750;52.134;5.424;2023-03-23T16:32:41;5.00;;;1.55;;
72085;SDS011;64750;52.134;5.424;2023-03-23T16:35:07;4.90;;;1.10;;
72085;SDS011;64750;52.134;5.424;2023-03-23T16:37:34;6.87;;;1.37;;
72085;SDS011;64750;52.134;5.424;2023-03-23T16:40:02;4.93;;;1.40;;
72085;SDS011;64750;52.134;5.424;2023-03-23T16:42:30;5.95;;;1.65;;
72085;SDS011;64750;52.134;5.424;2023-03-23T16:44:57;7.03;;;1.40;;
72085;SDS011;64750;52.134;5.424;2023-03-23T16:47:23;5.35;;;1.10;;
72085;SDS011;64750;52.134;5.424;2023-03-23T16:49:51;3.53;;;1.23;;
72085;SDS011;64750;52.134;5.424;2023-03-23T16:52:19;4.85;;;1.13;;
72085;SDS011;64750;52.134;5.424;2023-03-23T16:54:46;4.65;;;1.55;;
72085;SDS011;64750;52.134;5.424;2023-03-23T16:57:12;4.75;;;1.55;;
72085;SDS011;64750;52.134;5.424;2023-03-23T16:59:38;7.95;;;1.55;;
72085;SDS011;64750;52.134;5.424;2023-03-23T17:02:05;5.13;;;1.33;;